Time;durP1;ratioP1;P1;durP2;ratioP2;P2;SDS_P1;SDS_P2;PMS_P1;PMS_P2;Temp;Humidity;BMP_temperature;BMP_pressure;BME280_temperature;BME280_humidity;BME280_pressure;Samples;Min_cycle;Max_cycle;Signal;HPM_P1;HPM_P2
2023/05/23 11:11:12;;;;;;;15.90;5.22;;;13.20;85.30;;;;;;4917958;29;20189;-66
2023/05/23 11:13:54;;;;;;;14.77;4.88;;;13.10;85.30;;;;;;4930213;29;20064;-67
2023/05/23 11:16:47;;;;;;;15.57;5.05;;;13.00;85.30;;;;;;4926789;29;20040;-67
2023/05/23 11:19:24;;;;;;;16.13;5.20;;;13.10;85.40;;;;;;4929765;29;20067;-67
2023/05/23 11:21:58;;;;;;;12.77;4.75;;;13.00;85.60;;;;;;4922421;29;20681;-67
2023/05/23 11:24:51;;;;;;;16.55;5.40;;;13.00;85.50;;;;;;4925589;29;20047;-68
2023/05/23 11:27:33;;;;;;;15.50;4.78;;;13.00;85.60;;;;;;4928255;29;20047;-70
2023/05/23 11:30:04;;;;;;;15.85;4.85;;;13.00;85.70;;;;;;4915093;29;20502;-68
2023/05/23 11:32:32;;;;;;;13.93;4.85;;;12.90;85.80;;;;;;4913417;29;20055;-67
2023/05/23 11:35:06;;;;;;;12.65;4.60;;;12.90;85.70;;;;;;4928392;29;20467;-67
2023/05/23 11:37:33;;;;;;;14.73;4.85;;;12.90;85.60;;;;;;4928469;29;20039;-68
2023/05/23 11:40:20;;;;;;;17.75;4.53;;;12.80;85.40;;;;;;4926773;29;20483;-68
2023/05/23 11:42:47;;;;;;;13.98;4.60;;;12.90;85.30;;;;;;4911934;29;20546;-67
2023/05/23 11:45:15;;;;;;;17.42;5.15;;;12.80;85.40;;;;;;4901469;29;20122;-68
2023/05/23 11:47:42;;;;;;;13.95;4.60;;;12.80;85.60;;;;;;4940310;28;20091;-70
2023/05/23 11:50:10;;;;;;;12.45;4.43;;;12.80;85.40;;;;;;4927891;29;20043;-70
2023/05/23 11:52:38;;;;;;;15.93;4.93;;;12.70;85.40;;;;;;4930144;29;20578;-68
2023/05/23 11:55:07;;;;;;;15.55;5.05;;;12.70;85.30;;;;;;4932956;29;20509;-67
2023/05/23 11:57:38;;;;;;;14.43;5.13;;;12.70;85.20;;;;;;4931798;29;20039;-69
2023/05/23 12:00:10;;;;;;;15.80;5.90;;;12.70;85.20;;;;;;4915780;29;20044;-69
2023/05/23 12:02:44;;;;;;;16.02;5.13;;;12.70;85.30;;;;;;4915523;29;20040;-69
2023/05/23 12:05:13;;;;;;;13.65;4.70;;;12.70;85.20;;;;;;4912175;29;20126;-69
2023/05/23 12:07:50;;;;;;;13.13;4.97;;;12.60;85.40;;;;;;4929574;29;20040;-69
2023/05/23 13:17:48;;;;;;;17.38;5.38;;;12.20;86.30;;;;;;4927837;28;20413;-68
2023/05/23 13:20:15;;;;;;;18.05;6.25;;;12.20;86.10;;;;;;4935785;29;21849;-68
2023/05/23 13:22:43;;;;;;;18.63;5.75;;;12.20;86.10;;;;;;4939291;29;20095;-68
2023/05/23 13:25:10;;;;;;;17.38;5.70;;;12.20;86.00;;;;;;4935269;29;20035;-68
2023/05/23 13:27:38;;;;;;;17.05;6.07;;;12.10;86.20;;;;;;4940357;29;20134;-68
2023/05/23 13:30:06;;;;;;;18.90;5.70;;;12.20;86.20;;;;;;4935042;29;20048;-69
2023/05/23 13:32:33;;;;;;;16.02;6.28;;;12.20;86.10;;;;;;4932680;29;20055;-69
2023/05/23 13:35:01;;;;;;;19.00;7.15;;;12.20;86.00;;;;;;4943178;29;20035;-69
2023/05/23 13:37:28;;;;;;;16.58;7.07;;;12.20;86.20;;;;;;4928551;29;20070;-69
2023/05/23 13:39:56;;;;;;;22.60;7.68;;;12.10;86.10;;;;;;4937946;29;20063;-69
2023/05/23 13:42:23;;;;;;;20.45;7.63;;;12.10;86.30;;;;;;4933887;29;20051;-69
2023/05/23 13:44:50;;;;;;;19.38;7.50;;;12.10;86.30;;;;;;4932890;29;20032;-69
2023/05/23 13:47:18;;;;;;;17.42;7.13;;;12.10;86.30;;;;;;4942709;29;20043;-69
2023/05/23 13:49:45;;;;;;;21.70;6.85;;;12.10;86.40;;;;;;4934904;29;20075;-69
2023/05/23 13:52:13;;;;;;;18.30;6.90;;;12.10;86.40;;;;;;4938810;29;20044;-68
2023/05/23 13:54:40;;;;;;;17.58;6.65;;;12.10;86.50;;;;;;4942829;29;20502;-68
2023/05/23 13:57:08;;;;;;;19.27;6.43;;;12.20;86.40;;;;;;4947772;28;20044;-69
2023/05/23 13:59:35;;;;;;;19.55;7.25;;;12.10;86.50;;;;;;4953082;29;20587;-69
2023/05/23 14:02:03;;;;;;;16.27;7.40;;;12.10;86.40;;;;;;4954982;29;20118;-69
2023/05/23 14:04:31;;;;;;;23.25;7.03;;;12.00;86.30;;;;;;4937678;29;20182;-68
2023/05/23 14:06:59;;;;;;;22.48;7.28;;;12.00;86.30;;;;;;4942296;29;20078;-68
2023/05/23 14:09:26;;;;;;;18.95;7.10;;;12.00;86.40;;;;;;4934889;29;20040;-69
2023/05/23 14:11:54;;;;;;;18.73;6.55;;;12.00;86.50;;;;;;4935420;29;20039;-68
2023/05/23 14:14:21;;;;;;;18.55;6.75;;;11.90;86.40;;;;;;4944798;29;20054;-68
2023/05/23 14:16:50;;;;;;;24.70;7.30;;;11.90;86.70;;;;;;4940949;29;20032;-68
2023/05/23 14:19:18;;;;;;;21.95;7.53;;;11.90;86.80;;;;;;4934899;29;20054;-68
2023/05/23 14:21:45;;;;;;;20.60;6.72;;;12.00;86.80;;;;;;4938528;29;20035;-69
2023/05/23 14:24:13;;;;;;;18.83;7.65;;;11.90;86.80;;;;;;4945925;29;20063;-69
2023/05/23 14:26:40;;;;;;;22.67;7.15;;;11.90;86.50;;;;;;4917906;29;20082;-69
2023/05/23 14:29:07;;;;;;;15.90;6.97;;;11.90;86.20;;;;;;4933954;29;20031;-68
2023/05/23 14:31:35;;;;;;;18.80;6.85;;;11.80;85.90;;;;;;4934614;29;20044;-69
2023/05/23 14:34:03;;;;;;;19.08;7.13;;;11.80;86.00;;;;;;4936250;29;20514;-69
2023/05/23 14:36:30;;;;;;;21.13;6.72;;;11.70;86.10;;;;;;4933772;29;20032;-69
2023/05/23 14:38:58;;;;;;;19.25;6.90;;;11.80;86.10;;;;;;4917255;29;20104;-69
2023/05/23 14:41:26;;;;;;;18.23;7.18;;;11.80;86.30;;;;;;4942097;29;20058;-69
2023/05/23 14:43:53;;;;;;;16.35;5.90;;;11.80;86.30;;;;;;4942026;29;20039;-69
2023/05/23 14:46:20;;;;;;;17.25;6.47;;;11.70;86.50;;;;;;4935458;29;20054;-69
2023/05/23 14:48:48;;;;;;;15.82;7.03;;;11.70;86.40;;;;;;4934087;28;20036;-69
2023/05/23 14:51:15;;;;;;;14.13;6.88;;;11.70;86.40;;;;;;4934879;29;20043;-68
2023/05/23 14:53:43;;;;;;;17.13;6.82;;;11.70;86.40;;;;;;4938329;29;20062;-69
2023/05/23 14:56:10;;;;;;;19.75;7.10;;;11.70;86.50;;;;;;4943190;29;20389;-68
2023/05/23 14:58:40;;;;;;;18.50;7.57;;;11.70;86.50;;;;;;4944455;28;20086;-69
2023/05/23 15:01:07;;;;;;;16.38;6.57;;;11.70;86.60;;;;;;4947859;29;20409;-69
2023/05/23 15:03:34;;;;;;;27.60;6.25;;;11.60;86.40;;;;;;4932094;29;20039;-69
2023/05/23 15:06:03;;;;;;;16.50;6.20;;;11.60;86.50;;;;;;4934631;29;20036;-70
2023/05/23 15:08:30;;;;;;;20.92;7.28;;;11.60;86.50;;;;;;4934697;29;20071;-69
2023/05/23 15:10:58;;;;;;;13.15;5.80;;;11.60;86.50;;;;;;4934739;29;20035;-69
2023/05/23 15:13:25;;;;;;;20.98;6.38;;;11.60;86.40;;;;;;4935809;29;20051;-69
2023/05/23 15:15:53;;;;;;;22.63;7.60;;;11.60;86.40;;;;;;4933814;29;20595;-68
2023/05/23 15:18:20;;;;;;;15.98;6.28;;;11.60;86.30;;;;;;4933542;29;20055;-69
2023/05/23 15:20:48;;;;;;;20.38;6.47;;;11.60;86.20;;;;;;4934491;29;20447;-68
2023/05/23 15:23:15;;;;;;;25.50;6.70;;;11.60;86.10;;;;;;4918233;29;20031;-68
2023/05/23 15:25:42;;;;;;;27.92;6.80;;;11.50;86.20;;;;;;4953429;29;20442;-69
2023/05/23 15:28:10;;;;;;;23.05;6.90;;;11.40;86.10;;;;;;4953432;28;20039;-69
2023/05/23 15:30:37;;;;;;;16.33;6.20;;;11.40;86.10;;;;;;4936856;29;20390;-68
2023/05/23 15:33:06;;;;;;;16.08;5.90;;;11.40;86.10;;;;;;4940438;29;20044;-68
2023/05/23 15:35:34;;;;;;;16.10;6.28;;;11.40;86.00;;;;;;4943019;29;20126;-69
2023/05/23 15:38:01;;;;;;;23.00;6.95;;;11.30;86.10;;;;;;4937919;29;20123;-69
2023/05/23 15:40:29;;;;;;;24.30;6.35;;;11.30;86.00;;;;;;4942798;29;20171;-69
2023/05/23 15:42:56;;;;;;;20.98;6.30;;;11.30;86.00;;;;;;4917863;29;20067;-69
2023/05/23 15:45:24;;;;;;;18.10;6.40;;;11.30;86.10;;;;;;4940486;29;20036;-69
2023/05/23 15:47:51;;;;;;;17.80;6.75;;;11.20;86.10;;;;;;4936846;29;20043;-69
2023/05/23 15:50:19;;;;;;;23.20;5.80;;;11.30;85.90;;;;;;4937474;29;20386;-69
2023/05/23 15:52:46;;;;;;;23.80;6.07;;;11.30;85.90;;;;;;4939258;29;20070;-69
2023/05/23 15:55:13;;;;;;;25.90;6.82;;;11.30;85.70;;;;;;4948469;29;20043;-69
2023/05/23 15:57:41;;;;;;;20.25;5.97;;;11.30;85.70;;;;;;4957047;28;20027;-69
2023/05/23 16:00:09;;;;;;;16.90;6.03;;;11.20;85.70;;;;;;4940412;29;20430;-69
2023/05/23 16:02:36;;;;;;;18.15;6.28;;;11.20;85.50;;;;;;4957284;29;20038;-69
2023/05/23 16:05:04;;;;;;;17.58;6.18;;;11.20;85.60;;;;;;4946948;29;20044;-69
2023/05/23 16:07:31;;;;;;;17.40;5.88;;;11.20;85.70;;;;;;4937657;29;20355;-69
2023/05/23 16:09:59;;;;;;;19.35;5.22;;;11.20;85.70;;;;;;4938009;29;20039;-69
2023/05/23 16:12:26;;;;;;;21.15;6.38;;;11.10;85.70;;;;;;4931702;29;20039;-69
2023/05/23 16:14:54;;;;;;;23.67;6.05;;;11.10;85.70;;;;;;4948717;29;20063;-69
2023/05/23 16:17:21;;;;;;;22.58;6.45;;;11.00;85.90;;;;;;4937540;29;20569;-69
2023/05/23 16:19:48;;;;;;;17.77;6.40;;;11.00;86.20;;;;;;4937507;29;20048;-69
2023/05/23 16:22:16;;;;;;;18.85;6.28;;;11.00;86.20;;;;;;4937563;29;20040;-69
2023/05/23 16:24:43;;;;;;;16.23;5.47;;;11.00;86.30;;;;;;4926546;29;20066;-69
2023/05/23 16:27:11;;;;;;;18.23;5.68;;;11.00;86.10;;;;;;4939606;28;20439;-69
2023/05/23 16:29:38;;;;;;;20.38;6.78;;;10.90;86.20;;;;;;4956437;29;20036;-69
2023/05/23 16:32:06;;;;;;;18.95;6.00;;;10.90;86.00;;;;;;4928350;29;20514;-69
2023/05/23 16:34:34;;;;;;;18.70;5.50;;;10.90;85.90;;;;;;4937663;29;20043;-69
2023/05/23 16:37:01;;;;;;;18.63;5.60;;;10.80;86.00;;;;;;4938218;29;20046;-69
2023/05/23 16:39:28;;;;;;;21.77;5.78;;;10.80;85.90;;;;;;4919926;29;20040;-69
2023/05/23 16:41:56;;;;;;;22.42;6.38;;;10.80;85.70;;;;;;4937173;29;20028;-69
2023/05/23 16:44:23;;;;;;;18.58;6.13;;;10.70;85.70;;;;;;4936871;29;20032;-69
2023/05/23 16:46:51;;;;;;;18.60;6.25;;;10.70;85.50;;;;;;4925696;29;20039;-69
2023/05/23 16:49:18;;;;;;;20.23;6.43;;;10.70;85.40;;;;;;4938441;28;20047;-69
2023/05/23 16:51:46;;;;;;;21.45;5.93;;;10.70;85.00;;;;;;4936565;29;20032;-69
2023/05/23 16:54:13;;;;;;;21.20;6.85;;;10.70;84.90;;;;;;4936622;29;20052;-69
2023/05/23 16:56:40;;;;;;;16.58;5.32;;;10.70;84.60;;;;;;4939503;29;20401;-69
2023/05/23 16:59:08;;;;;;;26.92;7.22;;;10.70;84.40;;;;;;4918337;29;20047;-69
2023/05/23 17:01:35;;;;;;;17.17;5.88;;;10.70;84.30;;;;;;4907981;29;20406;-69
2023/05/23 17:04:04;;;;;;;26.88;6.22;;;10.50;84.20;;;;;;4936959;29;20023;-69
2023/05/23 17:06:32;;;;;;;20.83;5.90;;;10.60;84.20;;;;;;4937526;29;20394;-69
2023/05/23 17:08:59;;;;;;;21.90;6.32;;;10.60;84.00;;;;;;4936035;29;20502;-69
2023/05/23 17:11:27;;;;;;;23.63;6.00;;;10.50;83.90;;;;;;4937124;29;20042;-69
2023/05/23 17:13:54;;;;;;;22.88;6.00;;;10.50;83.80;;;;;;4919386;29;20047;-69
2023/05/23 17:16:22;;;;;;;31.25;5.95;;;10.40;84.00;;;;;;4920640;29;20039;-69
2023/05/23 17:18:50;;;;;;;18.90;5.65;;;10.40;84.10;;;;;;4949151;28;20048;-69
2023/05/23 17:21:17;;;;;;;16.10;5.32;;;10.40;84.00;;;;;;4903778;29;20446;-68
2023/05/23 17:23:44;;;;;;;18.40;6.15;;;10.40;83.90;;;;;;4919938;29;20478;-69
2023/05/23 17:26:12;;;;;;;19.92;6.20;;;10.30;84.00;;;;;;4919428;29;20127;-69
2023/05/23 17:28:40;;;;;;;27.25;5.65;;;10.30;84.00;;;;;;4935686;29;20115;-69
2023/05/23 17:31:07;;;;;;;17.67;5.50;;;10.30;84.20;;;;;;4934801;29;20058;-69
2023/05/23 17:33:35;;;;;;;15.90;5.57;;;10.20;84.20;;;;;;4934901;29;20075;-69
2023/05/23 17:36:02;;;;;;;18.38;5.78;;;10.20;84.30;;;;;;4935263;29;20032;-69
2023/05/23 17:38:30;;;;;;;18.10;5.93;;;10.20;84.20;;;;;;4949399;28;20453;-69
2023/05/23 17:40:57;;;;;;;15.82;5.68;;;10.20;84.20;;;;;;4935698;29;20028;-69
2023/05/23 17:43:24;;;;;;;28.33;7.00;;;10.20;84.40;;;;;;4935088;29;20114;-69
2023/05/23 17:45:52;;;;;;;25.42;5.63;;;10.20;84.50;;;;;;4935587;29;20055;-69
2023/05/23 17:48:19;;;;;;;14.30;5.70;;;10.10;84.50;;;;;;4942652;28;20497;-69
2023/05/23 17:50:47;;;;;;;20.50;5.20;;;10.10;84.70;;;;;;4934044;29;20040;-69
2023/05/23 17:53:15;;;;;;;21.98;5.13;;;10.10;84.60;;;;;;4935724;29;20478;-69
2023/05/23 17:55:42;;;;;;;14.32;5.18;;;10.10;84.70;;;;;;4936327;29;20383;-69
2023/05/23 17:58:09;;;;;;;18.88;4.90;;;10.10;85.00;;;;;;4935931;29;20090;-69
2023/05/23 18:00:37;;;;;;;17.60;4.82;;;10.10;84.80;;;;;;4935851;29;20038;-69
2023/05/23 18:03:05;;;;;;;17.50;4.47;;;10.20;85.00;;;;;;4935660;29;20190;-69
2023/05/23 18:05:32;;;;;;;15.82;4.47;;;10.20;84.90;;;;;;4935484;29;20050;-69
2023/05/23 18:08:00;;;;;;;13.00;4.90;;;10.10;85.00;;;;;;4918952;29;20036;-69
2023/05/23 18:10:28;;;;;;;17.02;5.03;;;10.20;85.10;;;;;;4934902;29;20036;-69
2023/05/23 18:12:56;;;;;;;11.88;4.40;;;10.10;85.20;;;;;;4935859;29;20501;-69
2023/05/23 18:15:24;;;;;;;13.60;4.18;;;10.10;85.30;;;;;;4938210;29;20031;-69
2023/05/23 18:17:54;;;;;;;12.65;4.72;;;10.10;85.40;;;;;;4954280;28;20047;-69
2023/05/23 18:20:22;;;;;;;12.35;4.85;;;10.10;85.50;;;;;;4955198;29;20046;-69
2023/05/23 18:22:53;;;;;;;17.23;4.80;;;10.10;85.40;;;;;;4944197;29;20375;-69
2023/05/23 18:25:30;;;;;;;16.17;4.30;;;10.10;85.40;;;;;;4944392;29;20039;-69
2023/05/23 19:46:37;;;;;;;8.35;3.90;;;9.50;85.90;;;;;;4932551;28;20097;-68
2023/05/23 19:49:05;;;;;;;15.98;4.30;;;9.60;85.70;;;;;;4919229;29;20060;-68
2023/05/23 19:51:32;;;;;;;12.60;4.18;;;9.60;85.60;;;;;;4919153;29;20048;-68
2023/05/23 19:54:00;;;;;;;9.30;3.88;;;9.60;85.60;;;;;;4930424;29;20494;-68
2023/05/23 19:56:28;;;;;;;12.05;3.80;;;9.60;85.50;;;;;;4938071;29;20040;-68
2023/05/23 19:58:55;;;;;;;11.13;3.95;;;9.50;85.50;;;;;;4937916;29;20502;-68
2023/05/23 20:01:23;;;;;;;9.70;3.40;;;9.60;85.60;;;;;;4938677;29;20066;-68
2023/05/23 20:03:51;;;;;;;11.27;4.00;;;9.70;85.50;;;;;;4937050;29;20529;-68
2023/05/23 20:06:18;;;;;;;8.13;3.30;;;9.60;85.40;;;;;;4937768;29;20063;-68
2023/05/23 20:08:45;;;;;;;11.18;3.38;;;9.60;85.40;;;;;;4937998;29;20035;-68
2023/05/23 20:11:13;;;;;;;10.13;3.17;;;9.60;85.20;;;;;;4937670;29;20027;-68
2023/05/23 20:13:40;;;;;;;10.98;3.28;;;9.60;85.20;;;;;;4937044;29;20103;-68
2023/05/23 20:16:08;;;;;;;10.55;3.45;;;9.60;85.20;;;;;;4936945;29;20032;-68
2023/05/23 20:18:35;;;;;;;9.23;3.03;;;9.60;85.20;;;;;;4937667;29;20052;-68
2023/05/23 20:21:03;;;;;;;9.75;2.90;;;9.60;84.90;;;;;;4937531;29;20061;-68
2023/05/23 20:23:30;;;;;;;8.38;3.03;;;9.70;84.80;;;;;;4937590;29;20040;-68
2023/05/23 20:25:58;;;;;;;10.05;2.95;;;9.60;85.00;;;;;;4937571;29;20035;-68
2023/05/23 20:28:26;;;;;;;12.10;2.92;;;9.60;85.10;;;;;;4937771;29;20118;-68
2023/05/23 20:30:53;;;;;;;7.20;2.53;;;9.60;85.00;;;;;;4936306;29;20035;-68
2023/05/23 20:33:21;;;;;;;10.05;3.28;;;9.60;84.90;;;;;;4936293;29;20051;-68
2023/05/23 20:35:48;;;;;;;8.05;2.75;;;9.60;84.70;;;;;;4937634;29;20040;-69
2023/05/23 20:38:18;;;;;;;4.70;2.53;;;9.50;84.70;;;;;;4937311;29;20047;-68
2023/05/23 20:40:49;;;;;;;6.90;2.67;;;9.60;84.60;;;;;;4937121;29;20103;-68
2023/05/23 20:43:16;;;;;;;;;;;9.60;84.70;;;;;;4936641;29;20293;-68
2023/05/23 20:45:43;;;;;;;7.00;2.60;;;9.60;85.00;;;;;;4936746;29;20007;-68
2023/05/23 21:24:35;;;;;;;9.07;3.25;;;9.50;85.00;;;;;;4934308;28;20417;-67
2023/05/23 21:27:02;;;;;;;7.15;2.92;;;9.60;84.90;;;;;;4948637;28;20051;-66
2023/05/23 21:29:29;;;;;;;11.90;3.40;;;9.60;84.60;;;;;;4948568;29;20099;-67
2023/05/23 21:31:57;;;;;;;13.93;3.67;;;9.60;84.60;;;;;;4935157;29;20078;-66
2023/05/23 21:34:24;;;;;;;6.50;3.10;;;9.60;84.60;;;;;;4919149;29;20075;-67
2023/05/23 21:36:52;;;;;;;8.20;3.00;;;9.60;84.60;;;;;;4935661;29;20035;-67
2023/05/23 21:39:19;;;;;;;7.13;3.38;;;9.70;84.60;;;;;;4916836;29;20044;-68
2023/05/23 21:41:46;;;;;;;9.73;3.35;;;9.70;84.50;;;;;;4933484;29;20036;-67
2023/05/23 21:44:16;;;;;;;14.10;3.38;;;9.70;84.70;;;;;;4942414;28;20390;-67
2023/05/23 21:46:44;;;;;;;7.70;3.40;;;9.70;84.50;;;;;;4945563;29;20039;-68
2023/05/23 21:49:11;;;;;;;9.38;3.05;;;9.70;84.60;;;;;;4944248;28;20032;-67
2023/05/23 21:51:38;;;;;;;13.68;3.30;;;9.70;84.30;;;;;;4936021;29;20058;-67
2023/05/23 21:54:06;;;;;;;9.95;3.63;;;9.80;84.50;;;;;;4915886;29;20415;-68
2023/05/23 21:56:33;;;;;;;11.52;3.33;;;9.80;84.10;;;;;;4937610;29;20035;-67
2023/05/23 21:59:01;;;;;;;7.78;3.30;;;9.90;84.30;;;;;;4954697;28;20031;-68
2023/05/23 22:01:28;;;;;;;8.05;3.67;;;9.90;84.00;;;;;;4955262;29;20042;-69
2023/05/23 22:03:55;;;;;;;11.25;3.75;;;9.90;83.50;;;;;;4941879;29;20422;-67
2023/05/23 22:06:23;;;;;;;12.93;3.97;;;9.90;83.20;;;;;;4935669;29;20088;-67
2023/05/23 22:08:51;;;;;;;11.35;4.22;;;10.00;83.20;;;;;;4935800;29;20098;-66
2023/05/23 22:11:18;;;;;;;14.95;5.03;;;10.00;83.10;;;;;;4935548;29;20114;-67
2023/05/23 22:13:46;;;;;;;12.25;3.97;;;10.10;83.40;;;;;;4935648;29;20050;-67
2023/05/23 22:16:13;;;;;;;9.65;3.83;;;10.10;83.10;;;;;;4935447;29;20394;-67
2023/05/23 22:18:44;;;;;;;11.20;3.30;;;10.20;83.20;;;;;;4935540;29;20032;-67
2023/05/23 22:21:12;;;;;;;14.43;3.75;;;10.20;82.90;;;;;;4935610;29;20024;-67
2023/05/23 22:23:39;;;;;;;10.20;3.03;;;10.20;82.90;;;;;;4935548;29;20047;-68
2023/05/23 22:26:07;;;;;;;7.43;2.97;;;10.20;82.90;;;;;;4935196;29;20059;-67
2023/05/23 22:28:34;;;;;;;13.45;3.47;;;10.20;83.20;;;;;;4935297;29;20050;-68
2023/05/23 22:31:02;;;;;;;8.95;2.92;;;10.30;82.70;;;;;;4935311;29;20070;-67
2023/05/23 22:33:29;;;;;;;8.82;2.92;;;10.30;82.20;;;;;;4935431;29;20498;-67
2023/05/23 22:35:57;;;;;;;8.23;3.20;;;10.40;82.50;;;;;;4935286;29;20036;-67
2023/05/23 22:38:24;;;;;;;12.07;3.22;;;10.40;82.30;;;;;;4918172;29;20039;-67
2023/05/23 22:40:51;;;;;;;9.85;3.15;;;10.50;82.00;;;;;;4935485;29;20493;-68
2023/05/23 22:43:20;;;;;;;5.63;2.65;;;10.50;82.00;;;;;;4935234;29;20042;-68
2023/05/23 22:45:48;;;;;;;9.02;2.40;;;10.50;81.70;;;;;;4934948;29;20533;-68
2023/05/23 22:48:19;;;;;;;8.43;2.70;;;10.50;80.90;;;;;;4935188;29;20490;-68
2023/05/23 22:50:46;;;;;;;5.68;2.60;;;10.60;81.10;;;;;;4935342;29;20035;-67
2023/05/23 22:53:15;;;;;;;7.97;2.53;;;10.60;81.20;;;;;;4918231;29;20043;-68
2023/05/23 22:55:43;;;;;;;11.38;2.42;;;10.60;81.30;;;;;;4935186;29;20048;-68
2023/05/23 22:58:12;;;;;;;5.35;2.40;;;10.70;81.30;;;;;;4934763;29;20036;-67
2023/05/23 23:00:40;;;;;;;6.50;2.20;;;10.70;81.10;;;;;;4935238;29;20095;-68
2023/05/23 23:03:07;;;;;;;3.95;2.03;;;10.80;80.70;;;;;;4935216;29;20055;-68
2023/05/23 23:05:34;;;;;;;5.90;2.38;;;10.80;80.40;;;;;;4935091;29;20044;-68
2023/05/23 23:08:02;;;;;;;9.57;2.90;;;10.90;80.20;;;;;;4934902;29;20111;-68
2023/05/23 23:10:29;;;;;;;7.25;2.50;;;10.90;79.80;;;;;;4934948;29;20035;-68
2023/05/23 23:12:57;;;;;;;5.35;2.42;;;10.90;79.80;;;;;;4917920;29;20072;-68
2023/05/23 23:15:24;;;;;;;6.35;2.10;;;11.00;79.70;;;;;;4917916;29;20565;-67
2023/05/23 23:17:51;;;;;;;9.90;2.65;;;11.00;79.40;;;;;;4934856;29;20040;-67
2023/05/23 23:20:21;;;;;;;7.78;2.95;;;11.10;78.90;;;;;;4934660;29;20032;-68
2023/05/23 23:22:48;;;;;;;8.93;2.90;;;11.10;78.80;;;;;;4934602;29;20051;-68
2023/05/23 23:25:17;;;;;;;7.50;2.63;;;11.10;78.90;;;;;;4934327;29;20502;-68
2023/05/23 23:27:45;;;;;;;13.77;3.03;;;11.20;78.70;;;;;;4918174;29;20036;-68
2023/05/23 23:30:12;;;;;;;9.35;3.20;;;11.20;78.30;;;;;;4935088;29;20032;-68
2023/05/23 23:32:40;;;;;;;10.60;3.60;;;11.20;77.50;;;;;;4934401;29;20052;-68
2023/05/23 23:35:07;;;;;;;13.70;3.13;;;11.30;77.60;;;;;;4934522;29;20386;-68
2023/05/23 23:37:35;;;;;;;9.18;3.28;;;11.30;77.50;;;;;;4934616;29;20036;-68
2023/05/23 23:40:02;;;;;;;12.35;4.10;;;11.30;77.50;;;;;;4934456;29;20047;-67
2023/05/23 23:42:30;;;;;;;10.68;3.50;;;11.40;77.40;;;;;;4902029;29;20046;-68
2023/05/23 23:44:57;;;;;;;11.57;3.20;;;11.40;77.20;;;;;;4934560;29;20428;-68
2023/05/23 23:47:25;;;;;;;11.93;3.50;;;11.50;77.50;;;;;;4934309;29;20040;-68
2023/05/23 23:49:52;;;;;;;8.40;3.40;;;11.50;77.50;;;;;;4934510;29;20399;-68
2023/05/23 23:52:20;;;;;;;8.15;3.20;;;11.50;77.30;;;;;;4917541;29;20063;-68
2023/05/23 23:54:47;;;;;;;8.55;3.15;;;11.60;77.20;;;;;;4934279;29;20040;-67
2023/05/23 23:57:14;;;;;;;11.07;3.50;;;11.60;76.90;;;;;;4934237;29;20082;-67
2023/05/23 23:59:42;;;;;;;11.55;3.25;;;11.60;76.60;;;;;;4934263;29;20084;-67
